Time;durP1;ratioP1;P1;durP2;ratioP2;P2;SDS_P1;SDS_P2;PMS_P1;PMS_P2;Temp;Humidity;BMP_temperature;BMP_pressure;BME280_temperature;BME280_humidity;BME280_pressure;Samples;Min_cycle;Max_cycle;Signal;HPM_P1;HPM_P2
2024/04/18 00:02:43;;;;;;;;;18.00;16.60;;;;;8.89;100.00;97907.16;6288920;27;95329;-58
2024/04/18 00:06:07;;;;;;;;;21.00;19.60;;;;;8.93;100.00;97916.38;6296939;27;96584;-58
2024/04/18 00:09:13;;;;;;;;;21.40;18.40;;;;;8.86;100.00;97904.91;6282186;27;94619;-58
2024/04/18 00:12:18;;;;;;;;;21.00;19.25;;;;;8.88;100.00;97918.94;6282812;27;94799;-57
2024/04/18 00:15:23;;;;;;;;;20.60;18.60;;;;;8.83;100.00;97916.97;6318999;27;94943;-57
2024/04/18 00:18:29;;;;;;;;;26.00;22.00;;;;;8.79;100.00;97907.75;6282093;27;94530;-57
2024/04/18 00:21:35;;;;;;;;;22.00;20.00;;;;;8.85;100.00;97904.09;6282140;27;94578;-57
2024/04/18 00:25:00;;;;;;;;;25.00;23.00;;;;;8.96;100.00;97915.91;6315721;27;94458;-57
2024/04/18 00:28:28;;;;;;;;;25.00;22.00;;;;;8.90;100.00;97906.06;6290593;27;94709;-57
2024/04/18 00:31:51;;;;;;;;;23.00;22.00;;;;;8.95;100.00;97915.06;6299437;27;94891;-57
2024/04/18 00:35:10;;;;;;;;;20.50;18.75;;;;;8.94;100.00;97910.75;6321893;27;96512;-58
2024/04/18 00:38:16;;;;;;;;;23.60;21.60;;;;;9.09;100.00;97921.84;6308312;27;94753;-57
2024/04/18 00:41:19;;;;;;;;;25.00;23.50;;;;;9.14;100.00;97924.66;6304169;27;94766;-57
2024/04/18 00:44:37;;;;;;;;;26.60;25.00;;;;;9.08;100.00;97917.53;6293823;27;94424;-58
2024/04/18 00:47:47;;;;;;;;;26.00;24.75;;;;;9.09;100.00;97921.03;6321750;27;94558;-58
2024/04/18 00:50:57;;;;;;;;;30.60;25.00;;;;;9.06;100.00;97913.44;6293143;27;95200;-58
2024/04/18 00:54:01;;;;;;;;;31.40;25.40;;;;;9.04;100.00;97916.34;6309238;27;96261;-57
2024/04/18 00:57:06;;;;;;;;;25.40;22.60;;;;;9.09;100.00;97929.09;6316226;27;94820;-57
2024/04/18 01:00:13;;;;;;;;;26.00;24.00;;;;;8.88;100.00;97906.34;6449452;22;96433;-90
2024/04/18 01:03:34;;;;;;;;;29.40;25.40;;;;;9.02;100.00;97931.91;6216227;28;94286;-91
2024/04/18 01:06:41;;;;;;;;;31.00;28.00;;;;;8.91;100.00;97908.53;6191001;28;94778;-90
2024/04/18 01:10:15;;;;;;;;;25.00;24.25;;;;;9.05;100.00;97936.00;6302753;22;96524;-83
2024/04/18 01:13:18;;;;;;;;;28.00;27.00;;;;;8.67;100.00;97885.41;6199295;28;94923;-82
2024/04/18 01:16:41;;;;;;;;;27.00;25.00;;;;;8.75;100.00;97890.44;6230661;28;95128;-80
2024/04/18 01:19:47;;;;;;;;;29.00;27.60;;;;;8.98;100.00;97929.94;6229048;28;94895;-81
2024/04/18 01:22:52;;;;;;;;;26.80;24.60;;;;;8.51;100.00;97875.34;6228967;28;96435;-82
2024/04/18 01:26:21;;;;;;;;;27.80;23.20;;;;;8.75;100.00;97914.63;6228981;27;94440;-80
2024/04/18 01:29:24;;;;;;;;;31.60;28.20;;;;;8.58;100.00;97895.69;6216188;28;94851;-81
2024/04/18 01:32:44;;;;;;;;;31.60;28.00;;;;;8.68;100.00;97911.25;6266470;27;96929;-80
2024/04/18 01:35:47;;;;;;;;;31.60;29.40;;;;;8.49;100.00;97902.47;6280181;27;97265;-81
2024/04/18 01:38:58;;;;;;;;;32.40;29.40;;;;;8.66;100.00;97924.06;6203111;28;95895;-81
2024/04/18 01:42:11;;;;;;;;;33.00;29.60;;;;;8.51;100.00;97905.72;6203136;28;96173;-81
2024/04/18 01:45:19;;;;;;;;;32.20;30.20;;;;;7.73;100.00;97809.28;6229984;28;95574;-80
2024/04/18 01:48:47;;;;;;;;;29.25;26.00;;;;;7.86;100.00;97829.75;6229786;27;97002;-80
2024/04/18 01:51:54;;;;;;;;;36.00;31.60;;;;;7.74;100.00;97777.91;6204315;28;97612;-82
2024/04/18 01:55:07;;;;;;;;;33.50;30.00;;;;;8.65;100.00;97919.75;6203539;28;97669;-82
2024/04/18 01:58:16;;;;;;;;;36.00;32.00;;;;;8.00;100.00;97825.78;6203403;28;96412;-81
2024/04/18 02:01:29;;;;;;;;;32.80;29.80;;;;;8.62;100.00;97909.47;6224059;28;95023;-82
2024/04/18 02:04:35;;;;;;;;;29.20;28.00;;;;;8.60;100.00;97896.28;6231186;27;95030;-81
2024/04/18 02:07:38;;;;;;;;;33.80;30.00;;;;;8.66;100.00;97907.97;6219811;28;96232;-81
2024/04/18 02:10:44;;;;;;;;;35.80;30.00;;;;;8.35;100.00;97857.28;6254034;27;97986;-82
2024/04/18 02:14:06;;;;;;;;;35.20;32.00;;;;;8.87;100.00;97925.38;6302018;27;96959;-82
2024/04/18 02:17:09;;;;;;;;;34.40;30.40;;;;;8.36;100.00;97851.66;6279675;27;97904;-81
2024/04/18 02:20:35;;;;;;;;;34.50;29.50;;;;;8.87;100.00;97941.50;6275570;27;96127;-81
2024/04/18 02:23:56;;;;;;;;;33.20;29.20;;;;;8.48;100.00;97865.09;6280432;27;97687;-83
2024/04/18 02:27:00;;;;;;;;;30.60;28.00;;;;;8.78;100.00;97934.84;6257159;27;97349;-82
2024/04/18 02:30:09;;;;;;;;;31.60;30.00;;;;;8.38;100.00;97868.34;6283642;27;94954;-81
2024/04/18 02:33:16;;;;;;;;;31.50;30.00;;;;;8.29;100.00;97883.16;6283800;27;94297;-82
2024/04/18 02:36:20;;;;;;;;;33.50;30.00;;;;;8.44;100.00;97915.78;6256968;27;96143;-81
2024/04/18 02:39:26;;;;;;;;;34.75;29.75;;;;;7.92;100.00;97846.75;6282511;27;94854;-83
2024/04/18 02:42:31;;;;;;;;;36.50;30.25;;;;;8.04;100.00;97861.03;6256190;27;97643;-82
2024/04/18 02:45:39;;;;;;;;;36.00;32.00;;;;;8.38;100.00;97921.25;6269992;27;94844;-83
2024/04/18 02:48:56;;;;;;;;;30.60;29.40;;;;;8.20;100.00;97900.66;6270400;28;96166;-83
2024/04/18 02:52:02;;;;;;;;;35.00;30.00;;;;;7.65;100.00;97806.13;6267195;27;94552;-81
2024/04/18 02:55:31;;;;;;;;;35.50;32.00;;;;;8.37;100.00;97923.09;6303964;27;94462;-81
2024/04/18 02:58:36;;;;;;;;;36.00;30.60;;;;;8.47;100.00;97933.28;6282093;27;95646;-81
2024/04/18 03:01:56;;;;;;;;;33.20;30.00;;;;;7.83;100.00;97839.06;6282422;27;96189;-81
2024/04/18 03:05:01;;;;;;;;;35.60;30.60;;;;;8.20;100.00;97903.31;6307324;27;97257;-82
2024/04/18 03:08:08;;;;;;;;;29.00;28.00;;;;;8.24;100.00;97915.25;6244412;27;94639;-82
2024/04/18 03:11:22;;;;;;;;;37.00;32.00;;;;;8.35;100.00;97937.84;6266213;28;95003;-82
2024/04/18 03:14:40;;;;;;;;;32.00;29.00;;;;;7.81;100.00;97859.94;6273643;27;96985;-81
2024/04/18 03:17:48;;;;;;;;;35.00;30.00;;;;;6.89;100.00;97729.84;6292011;27;94772;-83
2024/04/18 03:21:08;;;;;;;;;36.40;30.00;;;;;7.21;100.00;97810.84;6282056;27;96378;-83
2024/04/18 03:24:18;;;;;;;;;37.00;31.00;;;;;7.61;100.00;97859.41;6243804;27;96047;-82
2024/04/18 03:27:23;;;;;;;;;37.80;32.40;;;;;7.60;100.00;97868.50;6267742;27;97541;-83
2024/04/18 03:30:29;;;;;;;;;38.40;33.00;;;;;7.82;100.00;97912.53;6285840;27;97214;-85
2024/04/18 03:33:45;;;;;;;;;39.80;33.80;;;;;7.50;100.00;97876.25;6271254;27;94500;-83
2024/04/18 03:36:52;;;;;;;;;40.60;32.60;;;;;7.73;100.00;97913.09;6330450;27;96866;-82
2024/04/18 03:40:09;;;;;;;;;38.80;33.00;;;;;7.83;100.00;97913.34;6322694;27;94533;-84
2024/04/18 03:43:40;;;;;;;;;37.20;32.80;;;;;6.90;100.00;97768.16;6307185;27;96758;-83
2024/04/18 03:46:46;;;;;;;;;45.00;36.00;;;;;7.09;100.00;97793.88;6257818;27;96096;-84
2024/04/18 03:50:13;;;;;;;;;46.60;37.80;;;;;7.76;100.00;97908.09;6299621;27;94850;-84
2024/04/18 03:53:17;;;;;;;;;47.00;38.00;;;;;7.38;100.00;97844.03;6283123;27;97299;-83
2024/04/18 03:56:22;;;;;;;;;45.00;36.00;;;;;7.67;100.00;97882.63;6287212;27;97612;-83
2024/04/18 03:59:26;;;;;;;;;47.40;38.00;;;;;8.13;100.00;97954.44;6304615;22;96290;-60
2024/04/18 04:02:35;;;;;;;;;43.20;35.20;;;;;8.12;100.00;97952.78;6288426;27;94401;-57
2024/04/18 04:05:40;;;;;;;;;49.00;38.00;;;;;8.15;100.00;97968.44;6273460;27;94402;-59
2024/04/18 04:08:45;;;;;;;;;47.00;38.00;;;;;8.07;100.00;97954.50;6289358;27;95142;-60
2024/04/18 04:11:51;;;;;;;;;47.00;38.00;;;;;8.19;100.00;97968.81;6281712;27;94619;-60
2024/04/18 04:14:56;;;;;;;;;49.00;38.00;;;;;8.13;100.00;97964.34;6273328;27;96796;-58
2024/04/18 04:18:02;;;;;;;;;46.50;36.75;;;;;8.20;100.00;97968.59;6294212;27;95579;-60
2024/04/18 04:21:22;;;;;;;;;47.50;38.00;;;;;8.24;100.00;97974.31;6277901;27;96807;-61
2024/04/18 04:24:28;;;;;;;;;46.25;36.25;;;;;8.30;100.00;97973.44;6277052;27;96464;-60
2024/04/18 04:27:51;;;;;;;;;44.20;35.20;;;;;8.25;100.00;97970.59;6263889;27;94714;-59
2024/04/18 04:30:57;;;;;;;;;45.00;35.50;;;;;8.32;100.00;97979.38;7377538;22;97249;-83
2024/04/18 04:34:03;;;;;;;;;49.00;38.00;;;;;8.26;100.00;97959.59;6886745;22;97998;-84
2024/04/18 04:37:09;;;;;;;;;44.50;35.00;;;;;7.57;100.00;97852.88;6263119;27;95079;-83
2024/04/18 04:40:14;;;;;;;;;47.00;37.00;;;;;8.32;100.00;97949.84;6615169;22;97271;-85
2024/04/18 04:43:18;;;;;;;;;43.00;35.00;;;;;8.44;100.00;97960.63;6282285;27;95545;-85
2024/04/18 04:46:24;;;;;;;;;46.00;38.00;;;;;8.34;100.00;97939.69;6336540;27;96435;-85
2024/04/18 04:49:50;;;;;;;;;46.40;35.00;;;;;7.97;100.00;97882.59;6324882;27;97442;-85
2024/04/18 04:53:12;;;;;;;;;42.20;35.40;;;;;8.55;100.00;97965.19;6268709;27;94529;-85
2024/04/18 04:56:32;;;;;;;;;45.00;36.40;;;;;8.47;100.00;97962.81;6290830;27;94869;-86
2024/04/18 04:59:53;;;;;;;;;46.40;36.60;;;;;8.92;100.00;98009.63;6298709;27;94565;-86
2024/04/18 05:03:00;;;;;;;;;46.33;36.00;;;;;8.76;100.00;97983.44;6271318;27;96543;-85
2024/04/18 05:06:26;;;;;;;;;48.00;37.00;;;;;8.29;100.00;97899.25;6304920;27;96201;-85
2024/04/18 05:09:48;;;;;;;;;46.40;36.40;;;;;8.88;100.00;97980.78;6296220;27;94273;-85
2024/04/18 05:12:55;;;;;;;;;46.00;36.00;;;;;9.25;100.00;98010.94;6256551;27;97322;-85
2024/04/18 05:16:14;;;;;;;;;48.00;38.60;;;;;9.27;100.00;98000.75;6328088;27;94971;-85
2024/04/18 05:19:40;;;;;;;;;48.25;39.25;;;;;8.84;100.00;97920.47;6298018;27;96199;-85
2024/04/18 05:22:43;;;;;;;;;49.00;38.60;;;;;9.41;100.00;97997.59;6252266;27;94292;-85
2024/04/18 05:25:52;;;;;;;;;49.40;39.00;;;;;8.99;100.00;97927.00;6270334;27;95668;-85
2024/04/18 05:32:15;;;;;;;;;50.80;40.80;;;;;9.71;100.00;98048.56;6265561;27;96015;-86
2024/04/18 05:35:37;;;;;;;;;50.00;39.00;;;;;9.76;100.00;98045.16;6293527;27;97438;-85
2024/04/18 05:38:43;;;;;;;;;48.67;40.00;;;;;9.61;100.00;98026.81;6275616;27;96118;-85
2024/04/18 05:41:51;;;;;;;;;49.00;39.80;;;;;9.59;100.00;98020.84;6309013;27;96454;-85
2024/04/18 05:45:11;;;;;;;;;49.00;39.40;;;;;9.92;100.00;98047.13;6302386;27;95759;-85
2024/04/18 05:48:31;;;;;;;;;51.40;38.00;;;;;9.76;100.00;98023.63;6307840;27;95001;-85
2024/04/18 05:51:36;;;;;;;;;48.00;38.40;;;;;10.18;100.00;98048.47;6301281;27;94520;-86
2024/04/18 05:54:55;;;;;;;;;49.40;40.00;;;;;9.88;100.00;97984.84;6310117;27;97767;-83
2024/04/18 05:58:19;;;;;;;;;45.00;38.00;;;;;9.43;100.00;97901.31;6280851;27;95962;-83
2024/04/18 06:01:30;;;;;;;;;46.80;38.00;;;;;10.52;100.00;98046.69;6280158;27;97677;-84
2024/04/18 06:04:36;;;;;;;;;47.50;39.00;;;;;10.53;100.00;98019.50;6268782;27;94659;-82
2024/04/18 06:08:09;;;;;;;;;47.00;37.00;;;;;10.83;100.00;98063.19;6254787;27;96156;-83
2024/04/18 06:11:18;;;;;;;;;45.00;36.00;;;;;11.08;100.00;98051.19;6268005;27;96309;-83
2024/04/18 06:14:26;;;;;;;;;42.75;33.00;;;;;10.17;100.00;97872.56;6308801;27;95965;-83
2024/04/18 06:17:31;;;;;;;;;42.00;35.00;;;;;11.54;100.00;98053.50;6254453;27;97731;-83
2024/04/18 06:20:42;;;;;;;;;34.20;32.00;;;;;11.49;100.00;98018.34;6306667;27;94589;-83
2024/04/18 06:23:47;;;;;;;;;36.00;32.20;;;;;12.03;100.00;98051.78;6307358;27;95088;-83
2024/04/18 06:26:55;;;;;;;;;34.40;31.00;;;;;12.10;100.00;98043.50;6285005;27;96064;-84
2024/04/18 06:30:03;;;;;;;;;42.20;34.80;;;;;12.33;100.00;98056.72;6307132;27;94424;-83
2024/04/18 06:33:09;;;;;;;;;38.60;33.00;;;;;12.43;100.00;98059.56;6289547;27;94883;-84
2024/04/18 06:36:15;;;;;;;;;41.67;34.00;;;;;12.35;100.00;98026.75;6297786;27;94573;-84
2024/04/18 06:39:21;;;;;;;;;41.40;34.80;;;;;12.47;100.00;98060.66;6273319;27;95826;-86
2024/04/18 06:42:26;;;;;;;;;41.25;35.00;;;;;11.94;100.00;97999.25;6309511;27;94401;-83
2024/04/18 06:45:36;;;;;;;;;40.00;33.50;;;;;12.68;100.00;98069.81;6281025;27;97792;-83
2024/04/18 06:48:41;;;;;;;;;37.00;32.00;;;;;12.60;100.00;98024.31;6280821;27;94338;-83
2024/04/18 06:51:47;;;;;;;;;37.00;32.20;;;;;12.89;100.00;98032.97;6297772;27;96133;-85
2024/04/18 06:54:52;;;;;;;;;35.00;31.20;;;;;12.99;100.00;98011.41;6287253;27;98232;-86
2024/04/18 06:58:18;;;;;;;;;34.00;30.00;;;;;13.31;100.00;98076.38;6270335;27;97758;-84
2024/04/18 07:01:26;;;;;;;;;33.00;30.00;;;;;12.83;100.00;97967.19;6280800;27;96420;-83
2024/04/18 07:04:34;;;;;;;;;31.40;29.60;;;;;13.69;100.00;98072.56;6277274;27;95841;-83
2024/04/18 07:07:46;;;;;;;;;33.00;30.00;;;;;13.87;100.00;98074.88;6278497;27;97658;-83
2024/04/18 07:11:05;;;;;;;;;30.00;26.00;;;;;14.04;100.00;98080.09;6279523;27;98015;-83
2024/04/18 07:14:11;;;;;;;;;28.75;26.75;;;;;13.75;100.00;98014.66;6310144;27;94377;-83
2024/04/18 07:17:19;;;;;;;;;30.40;28.00;;;;;13.81;100.00;98008.19;6256693;27;97674;-83
2024/04/18 07:20:40;;;;;;;;;28.20;26.00;;;;;14.66;100.00;98088.25;6309128;27;94434;-83
2024/04/18 07:23:46;;;;;;;;;17.80;16.80;;;;;14.03;100.00;97975.47;6309487;27;94859;-83
2024/04/18 07:27:11;;;;;;;;;20.67;19.00;;;;;14.71;100.00;98026.66;6309348;27;95538;-83
2024/04/18 07:30:17;;;;;;;;;20.50;19.00;;;;;15.22;100.00;98075.56;6283419;27;94652;-84
2024/04/18 07:33:28;;;;;;;;;18.00;17.00;;;;;15.24;100.00;98051.69;6256899;27;96453;-83
2024/04/18 07:36:34;;;;;;;;;20.20;19.00;;;;;15.56;100.00;98052.22;6283229;27;97213;-84
2024/04/18 07:39:43;;;;;;;;;20.40;19.00;;;;;15.79;100.00;98090.75;6256416;27;98468;-84
2024/04/18 07:42:49;;;;;;;;;18.00;16.80;;;;;16.06;100.00;98064.06;6283879;27;94593;-82
2024/04/18 07:45:54;;;;;;;;;21.50;19.00;;;;;16.00;100.00;98019.75;6256480;27;97380;-82
2024/04/18 07:49:03;;;;;;;;;19.40;18.00;;;;;15.77;100.00;97947.03;6257808;27;97706;-82
2024/04/18 07:52:12;;;;;;;;;19.00;18.00;;;;;17.05;100.00;98067.66;6283844;27;97442;-82
2024/04/18 07:55:21;;;;;;;;;17.40;17.00;;;;;17.38;100.00;98045.06;6257054;27;98183;-82
2024/04/18 07:58:28;;;;;;;;;21.00;18.00;;;;;17.69;100.00;98059.25;6286718;27;97302;-83
2024/04/18 08:01:35;;;;;;;;;15.20;15.00;;;;;17.09;100.00;97952.44;6349790;27;94613;-82
2024/04/18 08:04:46;;;;;;;;;12.40;11.40;;;;;18.09;100.00;98055.25;6322276;27;96221;-82
2024/04/18 08:08:03;;;;;;;;;11.60;11.00;;;;;18.30;100.00;98074.94;6296116;27;97725;-82
2024/04/18 08:11:13;;;;;;;;;11.25;10.00;;;;;18.03;100.00;98019.06;6296709;27;97787;-85
2024/04/18 08:14:39;;;;;;;;;16.60;16.00;;;;;18.48;100.00;98055.06;6256284;22;96619;-58
2024/04/18 08:17:51;;;;;;;;;13.00;13.00;;;;;18.58;100.00;98057.69;6243708;27;94415;-57
2024/04/18 08:20:59;;;;;;;;;14.00;12.00;;;;;18.68;100.00;98052.09;6242805;28;94351;-57
2024/04/18 08:24:05;;;;;;;;;12.40;11.00;;;;;18.89;100.00;98053.44;6242441;27;94567;-57
2024/04/18 08:27:10;;;;;;;;;11.00;9.80;;;;;19.01;100.00;98053.78;6243255;28;94725;-57
2024/04/18 08:30:16;;;;;;;;;8.80;7.80;;;;;19.18;100.00;98047.78;6241837;28;94336;-57
2024/04/18 08:33:21;;;;;;;;;6.00;5.20;;;;;19.13;100.00;98045.16;6244307;27;95202;-57
2024/04/18 08:36:29;;;;;;;;;10.00;8.00;;;;;18.92;100.00;98052.03;6241405;28;97605;-57
2024/04/18 08:39:36;;;;;;;;;30.60;29.00;;;;;18.14;100.00;98044.28;6238748;28;96481;-57
2024/04/18 08:42:41;;;;;;;;;33.00;30.00;;;;;17.56;100.00;98044.34;6244615;27;94888;-57
2024/04/18 08:45:48;;;;;;;;;34.20;30.00;;;;;16.83;100.00;98065.34;6241991;28;94585;-57
2024/04/18 08:48:54;;;;;;;;;29.80;26.40;;;;;16.33;100.00;98064.50;6244721;27;95053;-57
2024/04/18 08:52:02;;;;;;;;;33.00;28.75;;;;;15.81;100.00;98066.84;6240761;28;94454;-57
2024/04/18 08:55:08;;;;;;;;;32.40;30.00;;;;;15.16;100.00;98068.50;6242682;27;94606;-57
2024/04/18 08:58:14;;;;;;;;;35.67;30.67;;;;;14.79;100.00;98060.59;6242776;28;95340;-57
2024/04/18 09:01:21;;;;;;;;;31.75;29.00;;;;;14.37;100.00;98077.00;6242794;27;94932;-57
2024/04/18 09:04:26;;;;;;;;;32.20;27.80;;;;;14.04;100.00;98080.91;6243971;27;97902;-57
2024/04/18 09:07:34;;;;;;;;;31.20;27.40;;;;;13.76;100.00;98076.69;6241229;28;94948;-58
2024/04/18 09:10:40;;;;;;;;;32.00;29.00;;;;;13.48;100.00;98074.34;6241962;28;94645;-57
2024/04/18 09:13:46;;;;;;;;;33.40;30.00;;;;;13.34;100.00;98078.56;6225216;28;96648;-57
2024/04/18 09:16:51;;;;;;;;;36.75;31.00;;;;;13.07;100.00;98077.75;6238242;28;94456;-57
2024/04/18 09:19:58;;;;;;;;;34.00;30.00;;;;;12.79;100.00;98074.28;6239475;28;96759;-57
2024/04/18 09:23:07;;;;;;;;;31.25;28.75;;;;;12.67;100.00;98084.41;6235732;28;95149;-57
2024/04/18 09:26:12;;;;;;;;;32.75;29.00;;;;;12.44;100.00;98074.69;6263738;27;94537;-57
2024/04/18 09:29:18;;;;;;;;;35.60;30.60;;;;;12.52;100.00;98062.59;6235640;28;94446;-57
2024/04/18 09:32:25;;;;;;;;;30.40;29.00;;;;;12.68;100.00;98069.81;6240011;28;94774;-57
2024/04/18 09:35:33;;;;;;;;;36.60;29.80;;;;;12.76;100.00;98069.34;6240610;27;95210;-57
2024/04/18 09:38:47;;;;;;;;;39.40;31.60;;;;;13.04;100.00;98068.28;6243550;27;94727;-57
2024/04/18 09:42:00;;;;;;;;;30.25;28.00;;;;;13.25;100.00;98070.09;6241966;27;94349;-57
2024/04/18 09:45:06;;;;;;;;;29.60;27.00;;;;;13.58;100.00;98063.59;6241973;28;94853;-57
2024/04/18 09:48:12;;;;;;;;;31.00;28.00;;;;;13.59;100.00;98058.97;6239685;28;94344;-57
2024/04/18 09:51:19;;;;;;;;;28.50;26.00;;;;;13.71;100.00;98063.13;6241599;27;94776;-57
2024/04/18 09:54:27;;;;;;;;;24.00;22.00;;;;;13.97;100.00;98055.97;6239779;27;96585;-57
2024/04/18 09:57:33;;;;;;;;;25.00;21.00;;;;;14.03;100.00;98054.88;6241149;27;95410;-57
2024/04/18 10:00:39;;;;;;;;;24.40;21.40;;;;;14.36;100.00;98059.13;6238076;28;96453;-57
2024/04/18 10:03:45;;;;;;;;;24.00;20.00;;;;;15.05;100.00;98050.59;6232938;28;95357;-57
2024/04/18 10:06:52;;;;;;;;;22.00;20.50;;;;;15.77;100.00;98047.56;6239847;28;94488;-57
2024/04/18 10:10:02;;;;;;;;;22.60;21.00;;;;;16.46;100.00;98052.22;6239719;28;94685;-57
2024/04/18 10:13:07;;;;;;;;;20.80;20.00;;;;;16.98;100.00;98048.09;6257571;27;96750;-57
2024/04/18 10:16:14;;;;;;;;;22.20;19.00;;;;;17.17;100.00;98063.47;6276976;27;96965;-57
2024/04/18 10:19:23;;;;;;;;;25.40;21.40;;;;;17.14;100.00;98057.78;6302667;22;96587;-87
2024/04/18 10:22:31;;;;;;;;;19.00;19.00;;;;;16.65;100.00;98034.19;6320913;27;94613;-87
2024/04/18 10:25:59;;;;;;;;;14.00;13.00;;;;;16.31;100.00;98035.97;6321311;27;95020;-87
2024/04/18 10:29:05;;;;;;;;;17.75;16.00;;;;;15.74;100.00;98039.13;6318845;27;94394;-87
2024/04/18 10:36:13;;;;;;;;;11.00;10.00;;;;;14.87;100.00;98073.63;7653441;22;97440;-89
2024/04/18 11:42:16;;;;;;;;;3.60;3.60;;;;;16.74;100.00;98086.09;8284507;20;1324185;-85
2024/04/18 11:45:21;;;;;;;;;5.00;5.00;;;;;16.86;100.00;98062.06;8184358;21;94810;-83
2024/04/18 11:48:27;;;;;;;;;4.75;4.75;;;;;16.59;100.00;97999.09;8171422;21;95625;-82
2024/04/18 11:51:33;;;;;;;;;6.00;5.00;;;;;16.71;100.00;97970.44;8216166;21;94984;-83
2024/04/18 11:54:39;;;;;;;;;5.00;5.00;;;;;17.22;100.00;98019.03;8186051;21;94494;-83
2024/04/18 11:57:47;;;;;;;;;6.00;5.75;;;;;17.66;100.00;98096.06;8277568;21;96772;-82
2024/04/18 12:01:14;;;;;;;;;7.00;7.00;;;;;17.16;100.00;98083.63;8257373;21;97264;-82
2024/04/18 12:04:19;;;;;;;;;10.00;9.00;;;;;16.13;100.00;98048.25;8193299;21;94537;-81
2024/04/18 12:07:25;;;;;;;;;7.00;6.00;;;;;16.16;100.00;98088.50;8194141;20;98208;-83
2024/04/18 12:10:31;;;;;;;;;8.00;7.00;;;;;15.22;100.00;98010.41;8193861;20;94606;-83
2024/04/18 12:13:45;;;;;;;;;8.00;8.00;;;;;14.88;100.00;98023.69;8238572;21;95044;-82
2024/04/18 12:17:00;;;;;;;;;8.00;7.60;;;;;14.80;100.00;98081.22;8283292;20;94332;-82
2024/04/18 12:20:20;;;;;;;;;7.00;6.00;;;;;14.39;100.00;98034.19;8237652;20;97619;-83
2024/04/18 12:23:26;;;;;;;;;7.00;7.00;;;;;14.56;100.00;98132.41;8187210;20;96488;-83
2024/04/18 12:26:41;;;;;;;;;8.00;8.00;;;;;13.86;100.00;98075.94;8304042;21;96132;-83
2024/04/18 12:29:54;;;;;;;;;8.00;7.00;;;;;14.13;100.00;98132.72;8350682;20;94396;-82
2024/04/18 12:32:59;;;;;;;;;7.00;6.00;;;;;13.93;100.00;98111.72;8257684;21;95705;-84
2024/04/18 12:36:09;;;;;;;;;8.00;7.60;;;;;13.62;100.00;98070.09;8302470;21;94127;-82
2024/04/18 12:39:15;;;;;;;;;6.60;6.00;;;;;13.20;100.00;98006.97;8303098;21;95928;-83
2024/04/18 12:42:21;;;;;;;;;7.25;7.25;;;;;13.74;100.00;98081.56;8342860;21;94390;-84
2024/04/18 12:45:30;;;;;;;;;8.00;7.00;;;;;13.69;100.00;98040.88;8294443;21;94566;-83
2024/04/18 12:48:37;;;;;;;;;6.60;6.00;;;;;14.13;100.00;98092.06;8289242;21;96516;-84
2024/04/18 12:59:21;;;;;;;;;7.50;6.50;;;;;13.26;100.00;97997.84;8325813;20;96345;-83
2024/04/18 13:02:29;;;;;;;;;6.40;6.40;;;;;13.83;100.00;98136.03;8110747;21;97688;-88
2024/04/18 13:05:34;;;;;;;;;7.00;7.00;;;;;13.01;100.00;98011.97;8232465;21;97172;-87
2024/04/18 13:08:46;;;;;;;;;9.00;8.80;;;;;13.61;100.00;98128.06;8146564;21;97546;-81
2024/04/18 13:12:23;;;;;;;;;8.60;7.60;;;;;12.82;100.00;98014.25;8249701;20;98183;-84
2024/04/18 13:15:35;;;;;;;;;8.00;7.60;;;;;13.09;100.00;98116.22;8251062;20;97585;-85
2024/04/18 13:18:52;;;;;;;;;8.00;8.00;;;;;12.36;100.00;98012.19;8117998;21;97538;-84
2024/04/18 13:22:14;;;;;;;;;9.00;9.00;;;;;13.31;100.00;98123.22;8199818;21;94980;-83
2024/04/18 13:25:19;;;;;;;;;11.00;10.00;;;;;13.70;100.00;98144.63;8147557;21;98125;-84
2024/04/18 13:28:24;;;;;;;;;10.00;10.00;;;;;13.70;100.00;98077.72;8224421;21;97300;-83
2024/04/18 13:31:44;;;;;;;;;10.00;8.00;;;;;14.29;100.00;98131.72;8227220;21;97549;-83
2024/04/18 13:35:01;;;;;;;;;9.00;8.00;;;;;14.14;100.00;98090.97;8183250;21;96087;-84
2024/04/18 13:38:06;;;;;;;;;8.00;7.50;;;;;14.58;100.00;98129.44;8227575;21;94764;-85
2024/04/18 13:41:30;;;;;;;;;7.00;7.00;;;;;14.12;100.00;98009.13;8224950;21;94505;-85
2024/04/18 13:44:52;;;;;;;;;9.00;8.00;;;;;15.06;100.00;98129.03;8268637;21;96671;-84
2024/04/18 13:48:20;;;;;;;;;7.00;7.00;;;;;14.88;100.00;98088.84;8226173;21;95591;-86
2024/04/18 13:51:28;;;;;;;;;6.00;5.00;;;;;14.98;100.00;98105.13;8181918;21;97639;-84
2024/04/18 13:54:34;;;;;;;;;7.00;7.00;;;;;15.15;100.00;98108.41;8225917;21;97351;-85
2024/04/18 13:57:40;;;;;;;;;6.00;6.00;;;;;15.21;100.00;98111.13;8223958;21;97005;-85
2024/04/18 14:01:01;;;;;;;;;5.60;5.00;;;;;14.71;100.00;98026.66;8298027;20;97029;-54
2024/04/18 14:04:07;;;;;;;;;7.00;6.40;;;;;15.55;100.00;98123.13;8287723;21;96509;-53
2024/04/18 14:07:18;;;;;;;;;6.00;5.00;;;;;15.76;100.00;98116.59;8287758;21;97672;-53
2024/04/18 14:10:24;;;;;;;;;6.60;6.60;;;;;15.66;100.00;98116.59;8242260;21;96888;-53
2024/04/18 14:13:44;;;;;;;;;7.00;6.00;;;;;15.85;100.00;98117.66;8328660;21;95186;-57
2024/04/18 14:20:37;;;;;;;;;7.00;6.00;;;;;15.60;100.00;98113.06;8333117;21;94764;-54
2024/04/18 14:23:46;;;;;;;;;8.00;6.00;;;;;15.64;100.00;98113.31;8288217;21;97362;-54
2024/04/18 14:26:51;;;;;;;;;7.80;7.00;;;;;15.68;100.00;98100.03;8336253;21;94299;-53
2024/04/18 14:30:02;;;;;;;;;7.00;5.40;;;;;15.68;100.00;98098.13;8279790;21;94518;-56
2024/04/18 14:33:12;;;;;;;;;5.00;5.00;;;;;15.52;100.00;98107.38;8328740;21;94262;-55
2024/04/18 14:36:18;;;;;;;;;8.00;7.00;;;;;15.44;100.00;98122.25;8329835;21;96378;-57
2024/04/18 14:39:27;;;;;;;;;7.00;6.00;;;;;15.30;100.00;98128.50;8289055;21;94355;-54
2024/04/18 14:42:42;;;;;;;;;5.50;5.50;;;;;15.12;100.00;98130.66;8242439;21;95088;-54
2024/04/18 14:45:51;;;;;;;;;5.00;5.00;;;;;15.04;100.00;98116.81;8242620;21;96539;-53
2024/04/18 14:49:01;;;;;;;;;6.00;5.00;;;;;15.07;100.00;98136.09;8337240;21;94325;-54
2024/04/18 14:52:07;;;;;;;;;4.80;4.80;;;;;15.09;100.00;98131.22;8289746;21;94837;-53
2024/04/18 14:55:15;;;;;;;;;6.00;5.00;;;;;14.97;100.00;98135.25;8332749;21;94567;-54
2024/04/18 14:58:22;;;;;;;;;6.00;5.00;;;;;14.92;100.00;98138.78;8335777;21;94902;-57
2024/04/18 15:05:20;;;;;;;;;4.00;4.00;;;;;14.99;100.00;98147.47;8226516;21;94939;-89
2024/04/18 15:20:20;;;;;;;;;4.00;4.00;;;;;13.72;100.00;98034.16;8204918;21;94359;-85
2024/04/18 15:23:44;;;;;;;;;3.60;3.00;;;;;13.68;100.00;98070.97;8123017;21;97754;-86
2024/04/18 15:27:02;;;;;;;;;5.60;5.00;;;;;13.66;100.00;98089.34;8077591;21;97686;-87
2024/04/18 15:33:54;;;;;;;;;4.60;4.00;;;;;13.83;100.00;98161.25;8221857;20;96264;-85
2024/04/18 15:37:22;;;;;;;;;5.00;5.00;;;;;13.49;100.00;98149.06;8293861;20;97483;-87
2024/04/18 15:40:37;;;;;;;;;5.00;5.00;;;;;13.31;100.00;98155.69;8176704;20;97010;-87
2024/04/18 15:43:42;;;;;;;;;5.60;5.00;;;;;13.00;100.00;98140.19;8098816;21;96818;-87
2024/04/18 15:47:08;;;;;;;;;4.00;3.00;;;;;13.14;100.00;98167.72;8204317;21;94719;-85
2024/04/18 15:50:23;;;;;;;;;4.00;4.00;;;;;13.07;100.00;98172.47;8199855;21;94907;-84
2024/04/18 15:53:32;;;;;;;;;4.00;4.00;;;;;12.29;100.00;98066.41;8160307;21;96102;-84
2024/04/18 15:56:43;;;;;;;;;3.00;2.00;;;;;12.63;100.00;98131.97;8218709;21;96018;-85
2024/04/18 16:00:04;;;;;;;;;4.80;4.40;;;;;12.76;100.00;98182.13;8269983;21;94694;-84
2024/04/18 16:03:16;;;;;;;;;3.00;3.00;;;;;12.39;100.00;98134.13;8226683;21;97503;-87
2024/04/18 16:06:30;;;;;;;;;2.00;2.00;;;;;12.66;100.00;98185.53;8226806;21;95696;-85
2024/04/18 16:09:52;;;;;;;;;4.00;3.40;;;;;12.57;100.00;98177.03;8225593;21;96042;-85
2024/04/18 16:12:58;;;;;;;;;4.40;4.40;;;;;12.49;100.00;98165.84;8270704;21;94595;-84
2024/04/18 16:16:04;;;;;;;;;3.75;3.00;;;;;11.66;100.00;98056.94;8182070;21;97283;-84
2024/04/18 16:19:16;;;;;;;;;3.00;3.00;;;;;12.48;100.00;98166.91;8264799;21;96367;-84